createdAt,value
2019-05-20T00:02:28.376Z,5.58
2019-05-20T00:04:58.542Z,5.53
2019-05-20T00:07:29.616Z,6.37
2019-05-20T00:10:00.634Z,5.15
2019-05-20T00:12:31.650Z,5.33
2019-05-20T00:15:03.856Z,6.37
2019-05-20T00:17:35.217Z,4.95
2019-05-20T00:20:07.673Z,5.00
2019-05-20T00:22:39.087Z,5.65
2019-05-20T00:25:10.093Z,5.65
2019-05-20T00:27:41.115Z,6.42
2019-05-20T00:30:12.451Z,5.45
2019-05-20T00:32:43.463Z,5.75
2019-05-20T00:35:14.645Z,5.37
2019-05-20T00:37:45.781Z,6.10
2019-05-20T00:40:17.095Z,6.08
2019-05-20T00:42:48.118Z,6.42
2019-05-20T00:45:19.142Z,6.90
2019-05-20T00:47:50.231Z,6.90
2019-05-20T00:50:21.242Z,6.83
2019-05-20T00:52:52.257Z,6.92
2019-05-20T00:55:28.332Z,7.78
2019-05-20T00:57:59.331Z,6.97
2019-05-20T01:00:30.823Z,6.75
2019-05-20T01:03:01.845Z,7.28
2019-05-20T01:05:32.928Z,6.37
2019-05-20T01:08:03.937Z,6.53
2019-05-20T01:10:34.950Z,6.03
2019-05-20T01:13:05.987Z,6.67
2019-05-20T01:15:36.999Z,6.53
2019-05-20T01:18:09.428Z,6.28
2019-05-20T01:20:40.455Z,7.15
2019-05-20T01:23:11.463Z,7.40
2019-05-20T01:25:43.811Z,6.97
2019-05-20T01:28:14.889Z,7.53
2019-05-20T01:30:45.903Z,6.97
2019-05-20T01:33:16.942Z,6.95
2019-05-20T01:35:47.945Z,7.10
2019-05-20T01:38:18.955Z,7.67
2019-05-20T01:40:49.959Z,8.00
2019-05-20T01:43:20.982Z,7.40
2019-05-20T01:45:51.912Z,7.90
2019-05-20T01:48:22.939Z,7.50
2019-05-20T01:50:53.940Z,7.95
2019-05-20T01:53:25.205Z,8.10
2019-05-20T01:55:56.223Z,7.28
2019-05-20T01:58:27.245Z,8.65
2019-05-20T02:00:58.350Z,8.35
2019-05-20T02:03:32.125Z,8.45
2019-05-20T02:06:02.264Z,7.92
2019-05-20T02:08:33.286Z,8.18
2019-05-20T02:11:04.515Z,8.60
2019-05-20T02:13:55.311Z,8.05
2019-05-20T02:16:28.044Z,8.98
2019-05-20T02:18:59.064Z,9.03
2019-05-20T02:21:29.997Z,10.30
2019-05-20T02:24:01.006Z,9.10
2019-05-20T02:26:32.014Z,9.98
2019-05-20T02:29:03.032Z,9.40
2019-05-20T02:31:34.112Z,9.65
2019-05-20T02:34:05.045Z,9.58
2019-05-20T02:36:36.131Z,9.75
2019-05-20T02:39:07.559Z,10.72
2019-05-20T02:41:38.578Z,10.80
2019-05-20T02:44:09.590Z,10.82
2019-05-20T02:46:40.541Z,10.35
2019-05-20T02:49:11.491Z,10.60
2019-05-20T02:51:42.545Z,11.50
2019-05-20T02:54:13.567Z,11.12
2019-05-20T02:56:44.579Z,11.10
2019-05-20T02:59:15.587Z,10.53
2019-05-20T03:01:46.603Z,11.55
2019-05-20T03:04:17.616Z,11.70
2019-05-20T03:06:48.635Z,11.00
2019-05-20T03:09:19.717Z,10.65
2019-05-20T03:11:50.745Z,12.13
2019-05-20T03:14:21.744Z,10.78
2019-05-20T03:16:52.690Z,12.82
2019-05-20T03:19:23.718Z,12.00
2019-05-20T03:21:54.818Z,12.45
2019-05-20T03:24:25.937Z,12.18
2019-05-20T03:26:57.032Z,11.73
2019-05-20T03:29:28.062Z,11.63
2019-05-20T03:31:59.090Z,11.60
2019-05-20T03:34:45.560Z,11.57
2019-05-20T03:37:02.978Z,12.37
2019-05-20T03:39:34.012Z,11.93
2019-05-20T03:42:05.032Z,12.20
2019-05-20T03:44:36.060Z,12.23
2019-05-20T03:47:06.976Z,11.60
2019-05-20T03:49:37.987Z,12.28
2019-05-20T03:52:09.080Z,12.23
2019-05-20T03:54:40.224Z,11.78
2019-05-20T03:57:11.382Z,11.25
2019-05-20T03:59:42.601Z,12.18
2019-05-20T04:02:14.794Z,12.37
2019-05-20T04:05:00.637Z,11.83
2019-05-20T04:07:18.822Z,11.28
2019-05-20T04:09:50.325Z,11.40
2019-05-20T04:12:21.504Z,10.70
2019-05-20T04:14:52.663Z,11.05
2019-05-20T04:17:23.823Z,11.55
2019-05-20T04:19:55.002Z,11.22
2019-05-20T04:22:26.198Z,11.78
2019-05-20T04:24:57.326Z,11.28
2019-05-20T04:27:28.924Z,11.30
2019-05-20T04:30:00.256Z,11.57
2019-05-20T04:32:32.248Z,11.15
2019-05-20T04:35:20.537Z,11.18
2019-05-20T04:37:37.290Z,12.10
2019-05-20T04:40:09.180Z,11.40
2019-05-20T04:42:43.213Z,12.05
2019-05-20T04:45:16.567Z,11.63
2019-05-20T04:47:47.736Z,11.60
2019-05-20T04:50:21.378Z,10.90
2019-05-20T04:52:55.323Z,10.88
2019-05-20T04:55:26.877Z,10.35
2019-05-20T04:58:00.471Z,10.53
2019-05-20T05:00:53.204Z,10.75
2019-05-20T05:03:24.552Z,10.30
2019-05-20T05:05:56.183Z,10.63
2019-05-20T05:08:27.328Z,10.90
2019-05-20T05:10:58.480Z,11.88
2019-05-20T05:13:31.404Z,10.10
2019-05-20T05:16:02.742Z,11.85
2019-05-20T05:18:33.837Z,9.63
2019-05-20T05:21:05.086Z,10.82
2019-05-20T05:23:36.203Z,17.65
2019-05-20T05:26:07.348Z,11.90
2019-05-20T05:28:38.542Z,18.75
2019-05-20T05:31:09.696Z,33.92
2019-05-20T05:33:40.853Z,33.67
2019-05-20T05:36:12.054Z,75.83
2019-05-20T05:38:43.701Z,26.00
2019-05-20T05:41:15.329Z,73.78
2019-05-20T05:43:46.477Z,130.20
2019-05-20T05:46:17.670Z,32.45
2019-05-20T05:48:49.967Z,49.70
2019-05-20T05:51:21.137Z,38.33
2019-05-20T05:53:52.605Z,13.25
2019-05-20T05:56:23.713Z,19.73
2019-05-20T05:58:54.879Z,14.03
2019-05-20T06:01:26.093Z,134.97
2019-05-20T06:03:57.256Z,108.75
2019-05-20T06:06:28.517Z,55.50
2019-05-20T06:08:59.665Z,16.65
2019-05-20T06:11:30.996Z,60.83
2019-05-20T06:14:02.095Z,99.35
2019-05-20T06:16:36.827Z,74.35
2019-05-20T06:19:07.129Z,31.73
2019-05-20T06:21:38.214Z,140.90
2019-05-20T06:24:09.497Z,24.77
2019-05-20T06:26:40.710Z,13.53
2019-05-20T06:29:11.881Z,13.48
2019-05-20T06:31:43.173Z,14.07
2019-05-20T06:34:14.665Z,13.62
2019-05-20T06:36:47.657Z,11.85
2019-05-20T06:39:19.046Z,10.93
2019-05-20T06:41:50.241Z,13.20
2019-05-20T06:44:21.370Z,12.63
2019-05-20T06:46:52.480Z,12.15
2019-05-20T06:49:23.574Z,12.85
2019-05-20T06:51:54.671Z,11.50
2019-05-20T06:54:25.795Z,19.42
2019-05-20T06:56:56.979Z,38.80
2019-05-20T06:59:28.118Z,37.35
2019-05-20T07:01:59.299Z,25.17
2019-05-20T07:04:30.655Z,13.35
2019-05-20T07:07:01.806Z,11.75
2019-05-20T07:09:34.317Z,11.85
2019-05-20T07:12:05.700Z,12.68
2019-05-20T07:14:36.926Z,12.03
2019-05-20T07:17:08.054Z,12.00
2019-05-20T07:19:39.199Z,11.68
2019-05-20T07:22:10.303Z,11.10
2019-05-20T07:24:41.625Z,11.60
2019-05-20T07:27:12.817Z,12.43
2019-05-20T07:29:43.940Z,13.78
2019-05-20T07:32:15.057Z,13.25
2019-05-20T07:34:46.171Z,14.07
2019-05-20T07:37:17.377Z,14.55
2019-05-20T07:39:48.490Z,15.20
2019-05-20T07:42:19.628Z,14.15
2019-05-20T07:44:50.753Z,14.95
2019-05-20T07:47:21.920Z,17.15
2019-05-20T07:49:53.561Z,16.87
2019-05-20T07:52:26.594Z,15.80
2019-05-20T07:54:58.618Z,16.40
2019-05-20T07:57:30.172Z,15.15
2019-05-20T08:00:01.689Z,13.95
2019-05-20T08:02:33.809Z,15.40
2019-05-20T08:05:10.101Z,14.33
2019-05-20T08:07:52.066Z,13.98
2019-05-20T08:10:14.911Z,14.30
2019-05-20T08:12:46.249Z,14.10
2019-05-20T08:15:17.484Z,14.47
2019-05-20T08:17:50.036Z,15.58
2019-05-20T08:20:21.220Z,15.25
2019-05-20T08:22:52.990Z,15.95
2019-05-20T08:25:24.213Z,11.73
2019-05-20T08:27:55.348Z,13.25
2019-05-20T08:30:35.481Z,15.72
2019-05-20T08:33:07.016Z,12.20
2019-05-20T08:35:38.407Z,15.28
2019-05-20T08:38:10.950Z,16.17
2019-05-20T08:40:42.781Z,16.17
2019-05-20T08:43:13.939Z,16.07
2019-05-20T08:45:46.115Z,17.10
2019-05-20T08:48:17.256Z,15.58
2019-05-20T08:50:48.414Z,18.15
2019-05-20T08:53:20.854Z,17.85
2019-05-20T08:55:51.978Z,17.62
2019-05-20T08:58:23.049Z,15.38
2019-05-20T09:00:54.179Z,15.53
2019-05-20T09:03:30.335Z,15.13
2019-05-20T09:05:59.731Z,15.48
2019-05-20T09:08:30.939Z,16.62
2019-05-20T09:11:02.134Z,14.98
2019-05-20T09:13:33.296Z,17.50
2019-05-20T09:16:05.833Z,15.90
2019-05-20T09:18:36.951Z,17.07
2019-05-20T09:21:08.230Z,17.05
2019-05-20T09:23:39.616Z,16.05
2019-05-20T09:26:11.032Z,16.32
2019-05-20T09:28:42.519Z,16.32
2019-05-20T09:31:13.846Z,16.50
2019-05-20T09:33:45.041Z,15.23
2019-05-20T09:36:16.183Z,15.68
2019-05-20T09:38:48.247Z,15.03
2019-05-20T09:41:20.738Z,17.07
2019-05-20T09:43:53.966Z,17.30
2019-05-20T09:46:26.503Z,17.25
2019-05-20T09:48:57.847Z,16.25
2019-05-20T09:51:29.163Z,17.98
2019-05-20T09:54:00.807Z,16.82
2019-05-20T09:56:32.368Z,18.52
2019-05-20T09:59:03.891Z,19.25
2019-05-20T10:01:39.577Z,17.62
2019-05-20T10:04:09.579Z,20.55
2019-05-20T10:06:41.190Z,28.55
2019-05-20T10:09:14.314Z,37.60
2019-05-20T10:11:46.426Z,33.30
2019-05-20T10:14:17.781Z,44.13
2019-05-20T10:16:50.771Z,23.27
2019-05-20T10:19:22.726Z,18.80
2019-05-20T10:21:54.120Z,18.67
2019-05-20T10:24:25.954Z,18.27
2019-05-20T10:26:57.664Z,17.92
2019-05-20T10:29:29.472Z,19.62
2019-05-20T10:32:00.872Z,19.30
2019-05-20T10:34:32.171Z,17.80
2019-05-20T10:37:03.401Z,18.02
2019-05-20T10:39:34.522Z,19.17
2019-05-20T10:42:05.760Z,20.43
2019-05-20T10:44:41.772Z,19.50
2019-05-20T10:47:10.645Z,18.92
2019-05-20T10:49:41.763Z,20.50
2019-05-20T10:52:12.905Z,18.85
2019-05-20T10:54:44.220Z,19.25
2019-05-20T10:57:15.301Z,18.07
2019-05-20T10:59:46.693Z,19.45
2019-05-20T11:02:19.516Z,17.65
2019-05-20T11:04:51.119Z,17.77
2019-05-20T11:07:22.446Z,17.70
2019-05-20T11:09:54.445Z,16.60
2019-05-20T11:12:26.190Z,17.35
2019-05-20T11:14:57.587Z,17.20
2019-05-20T11:17:28.842Z,16.40
2019-05-20T11:20:00.040Z,16.27
2019-05-20T11:22:31.240Z,16.40
2019-05-20T11:25:02.581Z,15.32
2019-05-20T11:27:34.842Z,15.48
2019-05-20T11:30:12.413Z,14.90
2019-05-20T11:32:43.719Z,15.18
2019-05-20T11:35:15.607Z,14.80
2019-05-20T11:37:47.888Z,14.95
2019-05-20T11:40:19.198Z,14.55
2019-05-20T11:42:50.359Z,14.60
2019-05-20T11:45:21.576Z,13.53
2019-05-20T11:47:52.814Z,14.87
2019-05-20T11:50:24.114Z,14.07
2019-05-20T11:52:55.252Z,14.30
2019-05-20T11:55:26.406Z,15.72
2019-05-20T11:58:12.810Z,14.75
2019-05-20T12:00:30.664Z,14.10
2019-05-20T12:03:01.803Z,13.98
2019-05-20T12:05:32.954Z,13.93
2019-05-20T12:08:04.075Z,13.85
2019-05-20T12:10:35.185Z,13.05
2019-05-20T12:13:06.269Z,14.00
2019-05-20T12:15:37.416Z,14.13
2019-05-20T12:18:08.513Z,14.58
2019-05-20T12:20:39.904Z,13.80
2019-05-20T12:23:11.016Z,13.38
2019-05-20T12:25:42.174Z,13.43
2019-05-20T12:28:13.309Z,14.20
2019-05-20T12:30:44.577Z,13.85
2019-05-20T12:33:19.007Z,14.45
2019-05-20T12:35:48.647Z,14.43
2019-05-20T12:38:20.177Z,13.18
2019-05-20T12:40:51.321Z,12.65
2019-05-20T12:43:22.484Z,13.85
2019-05-20T12:45:53.626Z,14.40
2019-05-20T12:48:24.741Z,13.93
2019-05-20T12:50:55.876Z,13.38
2019-05-20T12:53:27.055Z,15.18
2019-05-20T12:55:58.190Z,15.40
2019-05-20T12:58:29.358Z,13.32
2019-05-20T13:01:00.426Z,12.15
2019-05-20T13:03:31.638Z,12.82
2019-05-20T13:06:02.707Z,12.40
2019-05-20T13:08:33.869Z,12.58
2019-05-20T13:11:04.982Z,11.68
2019-05-20T13:13:36.167Z,12.90
2019-05-20T13:16:07.318Z,12.05
2019-05-20T13:18:54.685Z,11.73
2019-05-20T13:21:11.450Z,10.13
2019-05-20T13:23:42.654Z,11.48
2019-05-20T13:26:13.778Z,11.48
2019-05-20T13:28:45.774Z,11.93
2019-05-20T13:31:16.911Z,11.73
2019-05-20T13:33:47.999Z,13.43
2019-05-20T13:36:19.121Z,12.93
2019-05-20T13:38:50.351Z,13.62
2019-05-20T13:41:21.531Z,12.60
2019-05-20T13:43:52.713Z,10.85
2019-05-20T13:46:23.828Z,11.35
2019-05-20T13:48:54.992Z,12.15
2019-05-20T13:51:26.124Z,12.50
2019-05-20T13:53:57.244Z,12.68
2019-05-20T13:56:28.685Z,12.28
2019-05-20T13:58:59.810Z,13.18
2019-05-20T14:01:31.070Z,12.15
2019-05-20T14:04:02.179Z,12.90
2019-05-20T14:06:33.332Z,13.68
2019-05-20T14:09:07.645Z,11.93
2019-05-20T14:11:38.760Z,10.25
2019-05-20T14:14:13.829Z,9.38
2019-05-20T14:16:42.732Z,8.78
2019-05-20T14:19:13.848Z,8.48
2019-05-20T14:21:44.961Z,9.50
2019-05-20T14:24:16.102Z,8.90
2019-05-20T14:26:48.246Z,7.87
2019-05-20T14:29:19.350Z,8.10
2019-05-20T14:31:50.565Z,8.08
2019-05-20T14:34:21.765Z,7.78
2019-05-20T14:36:53.194Z,8.35
2019-05-20T14:39:25.437Z,8.70
2019-05-20T14:41:56.622Z,9.50
2019-05-20T14:44:27.746Z,9.08
2019-05-20T14:46:58.915Z,8.25
2019-05-20T14:49:30.119Z,7.90
2019-05-20T14:52:01.250Z,7.12
2019-05-20T14:54:32.400Z,6.30
2019-05-20T14:57:03.595Z,6.53
2019-05-20T14:59:34.759Z,5.72
2019-05-20T15:02:05.966Z,5.30
2019-05-20T15:04:37.225Z,5.08
2019-05-20T15:07:08.533Z,5.20
2019-05-20T15:09:39.728Z,5.00
2019-05-20T15:12:10.840Z,4.55
2019-05-20T15:14:42.621Z,4.42
2019-05-20T15:17:14.053Z,4.60
2019-05-20T15:19:45.319Z,3.52
2019-05-20T15:22:16.468Z,4.35
2019-05-20T15:24:47.582Z,3.85
2019-05-20T15:27:18.706Z,3.92
2019-05-20T15:29:49.833Z,3.83
2019-05-20T15:32:21.025Z,3.42
2019-05-20T15:34:52.127Z,3.70
2019-05-20T15:37:23.245Z,3.33
2019-05-20T15:39:56.112Z,3.25
2019-05-20T15:42:28.326Z,3.35
2019-05-20T15:44:59.626Z,3.47
2019-05-20T15:47:30.920Z,3.40
2019-05-20T15:50:05.268Z,3.70
2019-05-20T15:52:36.033Z,3.70
2019-05-20T15:55:08.516Z,3.90
2019-05-20T15:57:40.545Z,3.12
2019-05-20T16:00:12.409Z,2.87
2019-05-20T16:02:43.945Z,2.58
2019-05-20T16:05:15.084Z,1.70
2019-05-20T16:07:46.266Z,1.80
2019-05-20T16:10:19.256Z,1.90
2019-05-20T16:12:51.155Z,1.70
2019-05-20T16:15:23.382Z,1.60
2019-05-20T16:17:55.105Z,1.52
2019-05-20T16:20:27.589Z,2.10
2019-05-20T16:22:58.965Z,1.70
2019-05-20T16:25:30.550Z,1.32
2019-05-20T16:28:01.970Z,1.47
2019-05-20T16:30:34.967Z,1.72
2019-05-20T16:33:08.027Z,1.30
2019-05-20T16:35:40.502Z,1.50
2019-05-20T16:38:11.901Z,1.47
2019-05-20T16:40:43.068Z,1.45
2019-05-20T16:43:16.315Z,1.60
2019-05-20T16:45:49.093Z,1.80
2019-05-20T16:48:20.668Z,2.35
2019-05-20T16:50:53.928Z,1.27
2019-05-20T16:53:27.709Z,1.72
2019-05-20T16:56:01.461Z,1.20
2019-05-20T16:58:32.677Z,1.60
2019-05-20T17:01:04.018Z,1.30
2019-05-20T17:03:35.502Z,2.00
2019-05-20T17:06:06.998Z,2.08
2019-05-20T17:08:38.251Z,1.45
2019-05-20T17:11:09.494Z,2.17
2019-05-20T17:13:40.589Z,1.75
2019-05-20T17:16:11.702Z,1.42
2019-05-20T17:18:42.854Z,1.75
2019-05-20T17:21:13.984Z,1.45
2019-05-20T17:23:45.280Z,1.37
2019-05-20T17:26:16.389Z,1.10
2019-05-20T17:28:47.540Z,1.40
2019-05-20T17:31:19.033Z,1.65
2019-05-20T17:33:50.396Z,1.17
2019-05-20T17:36:21.600Z,1.37
2019-05-20T17:38:52.904Z,1.50
2019-05-20T17:41:24.718Z,1.40
2019-05-20T17:43:56.286Z,1.25
2019-05-20T17:46:30.040Z,1.22
2019-05-20T17:49:01.904Z,1.40
2019-05-20T17:51:34.888Z,1.67
2019-05-20T17:54:09.075Z,1.32
2019-05-20T17:56:42.704Z,1.82
2019-05-20T17:59:17.283Z,1.75
2019-05-20T18:01:49.417Z,1.90
2019-05-20T18:04:20.739Z,1.70
2019-05-20T18:06:52.072Z,1.90
2019-05-20T18:09:24.818Z,1.52
2019-05-20T18:11:55.901Z,1.70
2019-05-20T18:14:27.047Z,1.67
2019-05-20T18:16:58.271Z,1.72
2019-05-20T18:19:33.419Z,1.50
2019-05-20T18:22:04.684Z,1.55
2019-05-20T18:24:35.878Z,1.80
2019-05-20T18:27:07.256Z,1.62
2019-05-20T18:29:38.396Z,1.45
2019-05-20T18:32:10.066Z,1.47
2019-05-20T18:34:41.264Z,1.80
2019-05-20T18:37:12.418Z,1.80
2019-05-20T18:39:43.681Z,2.02
2019-05-20T18:42:14.830Z,3.35
2019-05-20T18:44:46.060Z,3.40
2019-05-20T18:47:17.307Z,2.42
2019-05-20T18:49:48.477Z,2.37
2019-05-20T18:52:19.636Z,2.30
2019-05-20T18:54:50.817Z,3.33
2019-05-20T18:57:21.985Z,4.05
2019-05-20T18:59:54.175Z,4.10
2019-05-20T19:02:25.295Z,3.37
2019-05-20T19:04:56.454Z,2.60
2019-05-20T19:07:27.560Z,2.40
2019-05-20T19:09:58.637Z,2.00
2019-05-20T19:12:29.749Z,2.27
2019-05-20T19:15:00.871Z,2.02
